• Join FlightAware (Why Join?)
  • Login
  • US Flag 
11:25PM EST


 

Airport Tracker/Info


-or-


 

Live Flight TrackerFlight Track Log ✈ EJA389 ✈ 14-Nov-2013 ✈ KHPN - KSSI

Flight Track Log - Related Links

Times and Time Zones

All times are in EST time to prevent confusion due to time zone crossing. See the EJA389 flight status page for this flight to view local times or setup timezone preferences in your user account.

Time Position Orientation Groundspeed Altitude Reporting Facility
EST Latitude Longitude Course Direction KTS MPH feet Rate Location/Type
10:08AM 41.0833 -73.7333 270° West 166 191 2,000  Level New York TRACON
10:09AM 41.0833 -73.7833 270° West 165 190 3,900 1,920 Climbing New York TRACON
10:10AM 41.0667 -73.8667 255° West 202 232 6,100 1,500 Climbing New York TRACON
10:11AM 41.0500 -73.9333 252° West 239 275 7,000 420 Climbing New York TRACON
10:12AM 41.0000 -74.0000 225° Southwest 264 304 7,000 1,140 Level New York TRACON
10:13AM 40.9333 -74.0333 201° Southwest 264 304 9,300 2,400 Climbing New York TRACON
10:14AM 40.6085 -74.1203 270° West  Level Estimated
10:14AM 40.8500 -74.0667 197° South 284 327 11,800  Level New York TRACON
10:15AM 40.7667 -74.1000 197° South 353 406 12,000 60 Climbing New York TRACON
10:16AM 40.6833 -74.1500 204° Southwest 351 404 12,000 1,020 Level New York TRACON
10:17AM 40.5833 -74.1833 194° South 354 407 14,100 2,400 Climbing New York TRACON
10:18AM 40.4833 -74.2000 187° South 372 428 16,900 1,140 Climbing New York TRACON
10:20AM 40.3322 -74.2153 184° South 396 456 17,000  Climbing New York Center
10:21AM 40.2464 -74.2244 185° South 365 420 17,000  Level New York Center
10:22AM 40.1503 -74.2386 186° South 357 411 17,100 780 Climbing New York Center
10:23AM 40.0414 -74.2522 185° South 351 404 18,600 2,280 Climbing New York Center
10:25AM 39.8928 -74.3692 211° Southwest 353 406 23,700 1,860 Climbing Washington Center
10:26AM 39.8186 -74.4650 225° Southwest 369 425 24,000 120 Climbing Washington Center
10:27AM 39.7425 -74.5633 225° Southwest 375 432 24,000 660 Level Washington Center
10:28AM 39.6681 -74.6561 224° Southwest 380 437 25,400 960 Climbing Washington Center
10:29AM 39.5897 -74.7542 224° Southwest 380 437 26,000 300 Climbing Washington Center
10:30AM 39.5133 -74.8492 224° Southwest 385 443 26,000  Level Washington Center
10:31AM 39.4367 -74.9439 224° Southwest 385 443 26,000  Level Washington Center
10:32AM 39.3581 -75.0414 224° Southwest 385 443 26,000 780 Level Washington Center
10:33AM 39.2731 -75.1225 216° Southwest 391 450 27,600 1,860 Climbing Washington Center
10:34AM 39.1689 -75.1686 199° South 391 450 29,800 1,920 Climbing Washington Center
10:35AM 39.0628 -75.2119 198° South 396 456 31,500 1,080 Climbing Washington Center
10:36AM 38.9525 -75.2581 198° South 406 467 32,000 420 Climbing Washington Center
10:37AM 38.8378 -75.3092 199° South 419 482 32,400 960 Climbing Washington Center
10:38AM 38.7233 -75.3603 199° South 432 497 33,900 1,440 Climbing Washington Center
10:39AM 38.6108 -75.4003 196° South 432 497 35,400 1,020 Climbing Washington Center
10:40AM 38.5003 -75.4511 200° South 432 497 36,000 240 Climbing Washington Center
10:41AM 38.3900 -75.4964 198° South 427 491 36,000  Level Washington Center
10:42AM 38.2858 -75.5653 207° Southwest 427 491 36,000 300 Level Washington Center
10:43AM 38.1897 -75.6550 216° Southwest 427 491 36,700 840 Climbing Washington Center
10:44AM 38.1000 -75.7394 217° Southwest 427 491 37,700 600 Climbing Washington Center
10:45AM 38.0103 -75.8264 217° Southwest 414 476 38,000 120 Climbing Washington Center
10:46AM 37.9183 -75.9128 217° Southwest 414 476 38,000  Level Washington Center
10:47AM 37.8222 -76.0019 216° Southwest 419 482 38,000  Level Washington Center
10:48AM 37.7300 -76.0906 217° Southwest 419 482 38,000  Level Washington Center
10:49AM 37.6336 -76.1767 215° Southwest 419 482 38,000  Level Washington Center
10:50AM 37.5331 -76.2544 212° Southwest 424 488 38,000  Level Washington Center
10:51AM 37.4286 -76.3214 207° Southwest 424 488 38,000  Level Washington Center
10:52AM 37.3217 -76.3883 206° Southwest 424 488 38,000  Level Washington Center
10:53AM 37.2128 -76.4525 205° Southwest 429 494 38,000  Level Washington Center
10:54AM 37.1058 -76.5189 206° Southwest 429 494 38,000  Level Washington Center
10:55AM 36.9969 -76.5853 206° Southwest 429 494 38,000  Level Washington Center
10:56AM 36.8900 -76.6514 206° Southwest 429 494 38,000  Level Washington Center
10:57AM 36.7808 -76.7175 206° Southwest 429 494 38,000  Level Washington Center
10:58AM 36.6739 -76.7883 208° Southwest 429 494 38,000  Level Washington Center
10:59AM 36.5625 -76.8514 204° Southwest 429 494 38,000  Level Washington Center
11:00AM 36.4533 -76.9192 207° Southwest 435 501 38,000  Level Washington Center
11:01AM 36.3336 -76.9919 206° Southwest 435 501 38,000  Level Washington Center
11:02AM 36.2244 -77.0544 205° Southwest 435 501 38,000  Level Washington Center
11:03AM 36.1150 -77.1167 205° Southwest 435 501 38,000  Level Washington Center
11:04AM 36.0142 -77.1814 207° Southwest 424 488 38,000  Level Washington Center
11:05AM 35.9067 -77.2461 206° Southwest 424 488 38,000  Level Washington Center
11:06AM 35.7975 -77.3078 205° Southwest 431 496 38,000  Level Washington Center
11:07AM 35.6858 -77.3719 205° Southwest 431 496 38,000  Level Washington Center
11:08AM 35.5764 -77.4383 206° Southwest 431 496 38,000  Level Washington Center
11:09AM 35.4689 -77.4997 205° Southwest 431 496 38,000  Level Washington Center
11:10AM 35.3636 -77.5711 209° Southwest 431 496 38,000  Level Washington Center
11:11AM 35.2722 -77.6603 219° Southwest 431 496 38,000  Level Washington Center
11:12AM 35.1831 -77.7522 220° Southwest 426 490 38,000  Level Washington Center
11:13AM 35.0936 -77.8436 220° Southwest 426 490 38,000  Level Washington Center
11:14AM 35.0150 -77.9250 220° Southwest 421 484 38,000  Level Washington Center
11:15AM 34.9256 -78.0164 220° Southwest 421 484 38,000  Level Washington Center
11:16AM 34.8381 -78.1047 220° Southwest 416 479 38,000  Level Washington Center
11:17AM 34.7525 -78.2008 223° Southwest 416 479 38,000  Level Washington Center
11:18AM 34.6650 -78.2914 220° Southwest 416 479 38,000  Level Washington Center
11:19AM 34.5756 -78.3792 219° Southwest 416 479 38,000  Level Washington Center
11:20AM 34.4750 -78.4850 221° Southwest 421 484 38,000  Level Jacksonville Center
11:21AM 34.3864 -78.5750 220° Southwest 421 484 38,000  Level Jacksonville Center
11:22AM 34.2994 -78.6597 219° Southwest 414 476 38,000  Level Jacksonville Center
11:23AM 34.2106 -78.7494 220° Southwest 414 476 38,000  Level Jacksonville Center
11:24AM 34.1258 -78.8339 220° Southwest 414 476 38,000  Level Jacksonville Center
11:25AM 34.0367 -78.9206 219° Southwest 414 476 38,000  Level Jacksonville Center
11:26AM 33.9497 -79.0047 219° Southwest 414 476 38,000  Level Jacksonville Center
11:27AM 33.8628 -79.0936 220° Southwest 414 476 38,000  Level Jacksonville Center
11:28AM 33.7733 -79.1800 219° Southwest 414 476 38,000  Level Jacksonville Center
11:29AM 33.6822 -79.2686 219° Southwest 408 470 38,000  Level Jacksonville Center
11:30AM 33.5947 -79.3544 219° Southwest 408 470 38,000  Level Jacksonville Center
11:31AM 33.5075 -79.4428 220° Southwest 408 470 38,000  Level Jacksonville Center
11:32AM 33.4222 -79.5281 220° Southwest 413 475 38,000  Level Jacksonville Center
11:33AM 33.3347 -79.6108 218° Southwest 413 475 38,000  Level Jacksonville Center
11:34AM 33.2492 -79.6936 219° Southwest 413 475 38,000  Level Jacksonville Center
11:35AM 33.1614 -79.7786 219° Southwest 413 475 38,000  Level Jacksonville Center
11:36AM 33.0758 -79.8608 219° Southwest 413 475 38,000 -720 Level Jacksonville Center
11:37AM 32.9881 -79.9456 219° Southwest 413 475 36,600 -1,920 Descending Jacksonville Center
11:38AM 32.9003 -80.0300 219° Southwest 413 475 34,200 -2,400 Descending Jacksonville Center
11:39AM 32.8039 -80.1072 214° Southwest 418 481 31,900 -2,340 Descending Jacksonville Center
11:40AM 32.7094 -80.1842 214° Southwest 418 481 29,600 -1,980 Descending Jacksonville Center
11:41AM 32.6233 -80.2533 214° Southwest 418 481 28,000 -840 Descending Jacksonville Center
11:42AM 32.5269 -80.3300 214° Southwest 423 487 28,000  Level Jacksonville Center
11:43AM 32.4281 -80.4067 213° Southwest 423 487 28,000  Level Jacksonville Center
11:44AM 32.3294 -80.4831 213° Southwest 428 493 28,000 -420 Level Jacksonville Center
11:45AM 32.2328 -80.5594 214° Southwest 428 493 27,200 -1,500 Descending Jacksonville Center
11:46AM 32.1319 -80.6406 214° Southwest 428 493 25,000 -2,100 Descending Jacksonville Center
11:47AM 32.0453 -80.7064 213° Southwest 414 476 23,100 -2,100 Descending Jacksonville Center
11:48AM 31.9444 -80.7847 213° Southwest 409 471 20,900 -1,560 Descending Jacksonville Center
11:49AM 31.8517 -80.8578 214° Southwest 409 471 20,000 -1,200 Descending Jacksonville Center
11:50AM 31.7711 -80.9206 214° Southwest 403 464 18,500 -1,740 Descending Jacksonville Center
11:51AM 31.6742 -80.9933 213° Southwest 389 448 16,600 -1,980 Descending Jacksonville Center
11:52AM 31.5856 -81.0636 214° Southwest 389 448 14,600 -1,980 Descending Jacksonville Center
11:53AM 31.5111 -81.1208 213° Southwest 377 434 12,700 -2,100 Descending Jacksonville Center
11:54AM 31.4203 -81.1883 212° Southwest 362 417 10,500 -2,100 Descending Jacksonville Center
11:55AM 31.3456 -81.2214 201° Southwest 312 359 8,500 -2,040 Descending Jacksonville Center
11:56AM 31.2683 -81.2300 185° South 283 326 6,500 -1,980 Descending Jacksonville Center
11:57AM 31.1994 -81.2361 184° South 277 319 4,600 -1,920 Descending Jacksonville Center